sensor_id;sensor_type;location;lat;lon;timestamp;temperature;humidity
32506;DHT22;18955;51.224;8.482;2023-07-28T00:00:25;15.30;87.90
32506;DHT22;18955;51.224;8.482;2023-07-28T00:02:51;15.30;87.60
32506;DHT22;18955;51.224;8.482;2023-07-28T00:05:17;15.30;87.60
32506;DHT22;18955;51.224;8.482;2023-07-28T00:07:44;15.40;88.00
32506;DHT22;18955;51.224;8.482;2023-07-28T00:10:10;15.30;88.40
32506;DHT22;18955;51.224;8.482;2023-07-28T00:12:37;15.30;88.00
32506;DHT22;18955;51.224;8.482;2023-07-28T00:15:03;15.30;88.50
32506;DHT22;18955;51.224;8.482;2023-07-28T00:17:29;15.30;88.10
32506;DHT22;18955;51.224;8.482;2023-07-28T00:19:56;15.30;89.10
32506;DHT22;18955;51.224;8.482;2023-07-28T00:22:22;15.30;88.20
32506;DHT22;18955;51.224;8.482;2023-07-28T00:24:48;15.30;88.20
32506;DHT22;18955;51.224;8.482;2023-07-28T00:27:14;15.30;88.60
32506;DHT22;18955;51.224;8.482;2023-07-28T00:29:41;15.30;88.50
32506;DHT22;18955;51.224;8.482;2023-07-28T00:32:08;15.30;88.00
32506;DHT22;18955;51.224;8.482;2023-07-28T00:34:36;15.30;88.00
32506;DHT22;18955;51.224;8.482;2023-07-28T00:37:03;15.30;88.00
32506;DHT22;18955;51.224;8.482;2023-07-28T00:39:29;15.30;87.80
32506;DHT22;18955;51.224;8.482;2023-07-28T00:41:55;15.30;88.00
32506;DHT22;18955;51.224;8.482;2023-07-28T00:44:22;15.30;88.00
32506;DHT22;18955;51.224;8.482;2023-07-28T00:46:48;15.30;88.00
32506;DHT22;18955;51.224;8.482;2023-07-28T00:49:14;15.30;88.20
32506;DHT22;18955;51.224;8.482;2023-07-28T00:51:41;15.30;87.80
32506;DHT22;18955;51.224;8.482;2023-07-28T00:54:07;15.30;88.30
32506;DHT22;18955;51.224;8.482;2023-07-28T00:56:34;15.30;88.40
32506;DHT22;18955;51.224;8.482;2023-07-28T00:59:00;15.30;88.30
32506;DHT22;18955;51.224;8.482;2023-07-28T01:01:27;15.30;88.30
32506;DHT22;18955;51.224;8.482;2023-07-28T01:03:53;15.30;88.60
32506;DHT22;18955;51.224;8.482;2023-07-28T01:09:02;15.30;88.10
32506;DHT22;18955;51.224;8.482;2023-07-28T01:11:29;15.20;87.40
32506;DHT22;18955;51.224;8.482;2023-07-28T01:13:56;15.30;87.80
32506;DHT22;18955;51.224;8.482;2023-07-28T01:16:22;15.30;87.80
32506;DHT22;18955;51.224;8.482;2023-07-28T01:18:49;15.30;87.50
32506;DHT22;18955;51.224;8.482;2023-07-28T01:21:26;15.30;88.20
32506;DHT22;18955;51.224;8.482;2023-07-28T01:26:35;15.30;87.50
32506;DHT22;18955;51.224;8.482;2023-07-28T01:29:05;15.20;87.00
32506;DHT22;18955;51.224;8.482;2023-07-28T01:31:31;15.30;87.50
32506;DHT22;18955;51.224;8.482;2023-07-28T01:33:58;15.20;87.90
32506;DHT22;18955;51.224;8.482;2023-07-28T01:36:24;15.20;87.30
32506;DHT22;18955;51.224;8.482;2023-07-28T01:38:50;15.20;88.60
32506;DHT22;18955;51.224;8.482;2023-07-28T01:41:16;15.30;88.00
32506;DHT22;18955;51.224;8.482;2023-07-28T01:43:42;15.20;87.90
32506;DHT22;18955;51.224;8.482;2023-07-28T01:46:09;15.20;88.30
32506;DHT22;18955;51.224;8.482;2023-07-28T01:48:35;15.20;87.00
32506;DHT22;18955;51.224;8.482;2023-07-28T01:51:01;15.20;87.00
32506;DHT22;18955;51.224;8.482;2023-07-28T01:53:27;15.20;87.50
32506;DHT22;18955;51.224;8.482;2023-07-28T01:55:54;15.20;87.40
32506;DHT22;18955;51.224;8.482;2023-07-28T01:58:20;15.30;87.70
32506;DHT22;18955;51.224;8.482;2023-07-28T02:00:46;15.20;88.00
32506;DHT22;18955;51.224;8.482;2023-07-28T02:03:12;15.20;87.20
32506;DHT22;18955;51.224;8.482;2023-07-28T02:05:38;15.20;87.70
32506;DHT22;18955;51.224;8.482;2023-07-28T02:08:05;15.20;87.90
32506;DHT22;18955;51.224;8.482;2023-07-28T02:10:31;15.20;87.30
32506;DHT22;18955;51.224;8.482;2023-07-28T02:12:57;15.20;86.90
32506;DHT22;18955;51.224;8.482;2023-07-28T02:15:23;15.20;87.90
32506;DHT22;18955;51.224;8.482;2023-07-28T02:17:50;15.20;87.60
32506;DHT22;18955;51.224;8.482;2023-07-28T02:20:16;15.20;87.60
32506;DHT22;18955;51.224;8.482;2023-07-28T02:22:43;15.20;87.70
32506;DHT22;18955;51.224;8.482;2023-07-28T02:25:09;15.20;87.90
32506;DHT22;18955;51.224;8.482;2023-07-28T02:27:36;15.20;87.90
32506;DHT22;18955;51.224;8.482;2023-07-28T02:30:04;15.20;87.80
32506;DHT22;18955;51.224;8.482;2023-07-28T02:32:31;15.20;87.00
32506;DHT22;18955;51.224;8.482;2023-07-28T02:34:57;15.20;86.90
32506;DHT22;18955;51.224;8.482;2023-07-28T02:37:24;15.20;87.40
32506;DHT22;18955;51.224;8.482;2023-07-28T02:39:51;15.20;87.20
32506;DHT22;18955;51.224;8.482;2023-07-28T02:42:17;15.20;87.40
32506;DHT22;18955;51.224;8.482;2023-07-28T02:44:43;15.20;87.30
32506;DHT22;18955;51.224;8.482;2023-07-28T02:47:09;15.20;87.80
32506;DHT22;18955;51.224;8.482;2023-07-28T02:49:35;15.20;87.60
32506;DHT22;18955;51.224;8.482;2023-07-28T02:52:02;15.20;88.10
32506;DHT22;18955;51.224;8.482;2023-07-28T02:54:29;15.20;87.10
32506;DHT22;18955;51.224;8.482;2023-07-28T02:56:55;15.20;86.70
32506;DHT22;18955;51.224;8.482;2023-07-28T02:59:22;15.20;87.80
32506;DHT22;18955;51.224;8.482;2023-07-28T03:01:49;15.20;87.70
32506;DHT22;18955;51.224;8.482;2023-07-28T03:04:20;15.20;87.10
32506;DHT22;18955;51.224;8.482;2023-07-28T03:07:19;15.20;87.00
32506;DHT22;18955;51.224;8.482;2023-07-28T03:09:51;15.20;87.60
32506;DHT22;18955;51.224;8.482;2023-07-28T03:12:17;15.20;87.50
32506;DHT22;18955;51.224;8.482;2023-07-28T03:14:43;15.20;87.90
32506;DHT22;18955;51.224;8.482;2023-07-28T03:17:10;15.20;87.40
32506;DHT22;18955;51.224;8.482;2023-07-28T03:19:36;15.20;87.70
32506;DHT22;18955;51.224;8.482;2023-07-28T03:22:02;15.10;88.10
32506;DHT22;18955;51.224;8.482;2023-07-28T03:24:29;15.20;88.90
32506;DHT22;18955;51.224;8.482;2023-07-28T03:26:56;15.20;87.90
32506;DHT22;18955;51.224;8.482;2023-07-28T03:29:22;15.20;87.60
32506;DHT22;18955;51.224;8.482;2023-07-28T03:31:48;15.20;87.50
32506;DHT22;18955;51.224;8.482;2023-07-28T03:34:17;15.20;87.80
32506;DHT22;18955;51.224;8.482;2023-07-28T03:36:43;15.20;87.20
32506;DHT22;18955;51.224;8.482;2023-07-28T03:39:10;15.20;86.40
32506;DHT22;18955;51.224;8.482;2023-07-28T03:41:37;15.20;87.60
32506;DHT22;18955;51.224;8.482;2023-07-28T03:44:03;15.20;87.30
32506;DHT22;18955;51.224;8.482;2023-07-28T03:46:29;15.20;87.90
32506;DHT22;18955;51.224;8.482;2023-07-28T03:48:56;15.20;88.20
32506;DHT22;18955;51.224;8.482;2023-07-28T03:51:23;15.20;87.90
32506;DHT22;18955;51.224;8.482;2023-07-28T03:53:50;15.20;87.50
32506;DHT22;18955;51.224;8.482;2023-07-28T03:56:16;15.20;87.60
32506;DHT22;18955;51.224;8.482;2023-07-28T03:58:42;15.20;87.10
32506;DHT22;18955;51.224;8.482;2023-07-28T04:01:08;15.10;87.30
32506;DHT22;18955;51.224;8.482;2023-07-28T04:03:35;15.20;87.50
32506;DHT22;18955;51.224;8.482;2023-07-28T04:06:09;15.20;87.60
32506;DHT22;18955;51.224;8.482;2023-07-28T04:08:36;15.20;87.50
32506;DHT22;18955;51.224;8.482;2023-07-28T04:11:02;15.20;87.40
32506;DHT22;18955;51.224;8.482;2023-07-28T04:13:28;15.20;87.00
32506;DHT22;18955;51.224;8.482;2023-07-28T04:15:54;15.20;87.20
32506;DHT22;18955;51.224;8.482;2023-07-28T04:18:22;15.10;87.30
32506;DHT22;18955;51.224;8.482;2023-07-28T04:20:49;15.20;86.60
32506;DHT22;18955;51.224;8.482;2023-07-28T04:23:15;15.10;87.40
32506;DHT22;18955;51.224;8.482;2023-07-28T04:25:42;15.10;87.50
32506;DHT22;18955;51.224;8.482;2023-07-28T04:28:08;15.20;87.40
32506;DHT22;18955;51.224;8.482;2023-07-28T04:30:35;15.20;87.70
32506;DHT22;18955;51.224;8.482;2023-07-28T04:33:01;15.10;87.40
32506;DHT22;18955;51.224;8.482;2023-07-28T04:35:34;15.10;87.50
32506;DHT22;18955;51.224;8.482;2023-07-28T04:38:26;15.20;88.00
32506;DHT22;18955;51.224;8.482;2023-07-28T04:40:57;15.10;87.20
32506;DHT22;18955;51.224;8.482;2023-07-28T04:43:39;15.10;87.80
32506;DHT22;18955;51.224;8.482;2023-07-28T04:46:05;15.10;88.00
32506;DHT22;18955;51.224;8.482;2023-07-28T04:48:32;15.10;87.90
32506;DHT22;18955;51.224;8.482;2023-07-28T04:50:59;15.10;88.00
32506;DHT22;18955;51.224;8.482;2023-07-28T04:53:49;15.10;87.80
32506;DHT22;18955;51.224;8.482;2023-07-28T04:56:19;15.10;87.30
32506;DHT22;18955;51.224;8.482;2023-07-28T04:58:45;15.10;87.60
32506;DHT22;18955;51.224;8.482;2023-07-28T05:01:12;15.10;86.90
32506;DHT22;18955;51.224;8.482;2023-07-28T05:03:40;15.10;87.00
32506;DHT22;18955;51.224;8.482;2023-07-28T05:06:18;15.10;87.40
32506;DHT22;18955;51.224;8.482;2023-07-28T05:08:44;15.10;87.10
32506;DHT22;18955;51.224;8.482;2023-07-28T05:11:11;15.20;87.30
32506;DHT22;18955;51.224;8.482;2023-07-28T05:13:37;15.20;88.00
32506;DHT22;18955;51.224;8.482;2023-07-28T05:16:04;15.10;88.70
32506;DHT22;18955;51.224;8.482;2023-07-28T05:18:48;15.10;88.50
32506;DHT22;18955;51.224;8.482;2023-07-28T05:21:53;15.10;87.70
32506;DHT22;18955;51.224;8.482;2023-07-28T05:24:24;15.10;88.10
32506;DHT22;18955;51.224;8.482;2023-07-28T05:26:50;15.10;87.90
32506;DHT22;18955;51.224;8.482;2023-07-28T05:29:16;15.10;88.60
32506;DHT22;18955;51.224;8.482;2023-07-28T05:31:46;15.10;88.40
32506;DHT22;18955;51.224;8.482;2023-07-28T05:34:28;15.20;87.90
32506;DHT22;18955;51.224;8.482;2023-07-28T05:36:55;15.20;88.10
32506;DHT22;18955;51.224;8.482;2023-07-28T05:39:24;15.20;88.50
32506;DHT22;18955;51.224;8.482;2023-07-28T05:41:50;15.20;88.50
32506;DHT22;18955;51.224;8.482;2023-07-28T05:44:17;15.20;87.90
32506;DHT22;18955;51.224;8.482;2023-07-28T05:46:43;15.20;88.10
32506;DHT22;18955;51.224;8.482;2023-07-28T05:49:11;15.20;88.60
32506;DHT22;18955;51.224;8.482;2023-07-28T05:51:38;15.20;89.50
32506;DHT22;18955;51.224;8.482;2023-07-28T05:54:04;15.20;88.40
32506;DHT22;18955;51.224;8.482;2023-07-28T05:56:31;15.20;88.30
32506;DHT22;18955;51.224;8.482;2023-07-28T05:58:57;15.20;88.20
32506;DHT22;18955;51.224;8.482;2023-07-28T06:01:23;15.20;88.20
32506;DHT22;18955;51.224;8.482;2023-07-28T06:04:09;15.20;88.60
32506;DHT22;18955;51.224;8.482;2023-07-28T06:06:42;15.20;88.40
32506;DHT22;18955;51.224;8.482;2023-07-28T06:09:08;15.20;88.60
32506;DHT22;18955;51.224;8.482;2023-07-28T06:11:35;15.20;88.40
32506;DHT22;18955;51.224;8.482;2023-07-28T06:14:02;15.20;88.50
32506;DHT22;18955;51.224;8.482;2023-07-28T06:16:29;15.20;88.40
32506;DHT22;18955;51.224;8.482;2023-07-28T06:18:55;15.20;88.10
32506;DHT22;18955;51.224;8.482;2023-07-28T06:21:23;15.20;88.20
32506;DHT22;18955;51.224;8.482;2023-07-28T06:23:49;15.20;88.30
32506;DHT22;18955;51.224;8.482;2023-07-28T06:26:16;15.20;88.20
32506;DHT22;18955;51.224;8.482;2023-07-28T06:28:42;15.20;88.60
32506;DHT22;18955;51.224;8.482;2023-07-28T06:31:09;15.20;88.20
32506;DHT22;18955;51.224;8.482;2023-07-28T06:33:36;15.20;89.20
32506;DHT22;18955;51.224;8.482;2023-07-28T06:36:03;15.20;90.30
32506;DHT22;18955;51.224;8.482;2023-07-28T06:38:30;15.20;89.60
32506;DHT22;18955;51.224;8.482;2023-07-28T06:40:56;15.30;89.60
32506;DHT22;18955;51.224;8.482;2023-07-28T06:43:22;15.20;89.70
32506;DHT22;18955;51.224;8.482;2023-07-28T06:45:51;15.30;89.70
32506;DHT22;18955;51.224;8.482;2023-07-28T06:48:17;15.30;89.80
32506;DHT22;18955;51.224;8.482;2023-07-28T06:50:43;15.30;89.50
32506;DHT22;18955;51.224;8.482;2023-07-28T06:53:09;15.30;89.90
32506;DHT22;18955;51.224;8.482;2023-07-28T06:55:36;15.30;90.00
32506;DHT22;18955;51.224;8.482;2023-07-28T06:58:05;15.30;90.10
32506;DHT22;18955;51.224;8.482;2023-07-28T07:00:32;15.30;89.90
32506;DHT22;18955;51.224;8.482;2023-07-28T07:03:00;15.30;90.00
32506;DHT22;18955;51.224;8.482;2023-07-28T07:05:26;15.40;89.40
32506;DHT22;18955;51.224;8.482;2023-07-28T07:07:52;15.40;90.00
32506;DHT22;18955;51.224;8.482;2023-07-28T07:10:20;15.40;89.90
32506;DHT22;18955;51.224;8.482;2023-07-28T07:12:47;15.40;90.00
32506;DHT22;18955;51.224;8.482;2023-07-28T07:15:13;15.40;90.10
32506;DHT22;18955;51.224;8.482;2023-07-28T07:17:40;15.40;89.70
32506;DHT22;18955;51.224;8.482;2023-07-28T07:20:07;15.40;89.50
32506;DHT22;18955;51.224;8.482;2023-07-28T07:22:33;15.40;89.40
32506;DHT22;18955;51.224;8.482;2023-07-28T07:25:00;15.50;89.30
32506;DHT22;18955;51.224;8.482;2023-07-28T07:27:26;15.50;89.20
32506;DHT22;18955;51.224;8.482;2023-07-28T07:29:52;15.50;89.90
32506;DHT22;18955;51.224;8.482;2023-07-28T07:32:18;15.50;90.10
32506;DHT22;18955;51.224;8.482;2023-07-28T07:34:45;15.50;90.00
32506;DHT22;18955;51.224;8.482;2023-07-28T07:37:11;15.50;90.10
32506;DHT22;18955;51.224;8.482;2023-07-28T07:39:37;15.60;90.00
32506;DHT22;18955;51.224;8.482;2023-07-28T07:42:03;15.60;90.00
32506;DHT22;18955;51.224;8.482;2023-07-28T07:44:31;15.60;89.70
32506;DHT22;18955;51.224;8.482;2023-07-28T07:47:00;15.60;90.10
32506;DHT22;18955;51.224;8.482;2023-07-28T07:49:26;15.60;90.10
32506;DHT22;18955;51.224;8.482;2023-07-28T07:51:53;15.60;90.00
32506;DHT22;18955;51.224;8.482;2023-07-28T07:54:19;15.60;89.80
32506;DHT22;18955;51.224;8.482;2023-07-28T07:56:45;15.70;90.30
32506;DHT22;18955;51.224;8.482;2023-07-28T07:59:12;15.70;90.40
32506;DHT22;18955;51.224;8.482;2023-07-28T08:01:39;15.70;90.20
32506;DHT22;18955;51.224;8.482;2023-07-28T08:04:06;15.70;90.30
32506;DHT22;18955;51.224;8.482;2023-07-28T08:06:32;15.70;90.50
32506;DHT22;18955;51.224;8.482;2023-07-28T08:08:59;15.70;90.20
32506;DHT22;18955;51.224;8.482;2023-07-28T08:11:25;15.60;90.30
32506;DHT22;18955;51.224;8.482;2023-07-28T08:13:51;15.70;90.80
32506;DHT22;18955;51.224;8.482;2023-07-28T08:16:23;15.80;90.70
32506;DHT22;18955;51.224;8.482;2023-07-28T08:18:49;15.80;90.90
32506;DHT22;18955;51.224;8.482;2023-07-28T08:21:15;15.80;90.70
32506;DHT22;18955;51.224;8.482;2023-07-28T08:23:42;15.80;90.80
32506;DHT22;18955;51.224;8.482;2023-07-28T08:26:08;15.90;91.00
32506;DHT22;18955;51.224;8.482;2023-07-28T08:28:34;15.90;91.00
32506;DHT22;18955;51.224;8.482;2023-07-28T08:31:00;15.90;91.10
32506;DHT22;18955;51.224;8.482;2023-07-28T08:33:27;15.90;91.00
32506;DHT22;18955;51.224;8.482;2023-07-28T08:35:53;15.90;90.90
32506;DHT22;18955;51.224;8.482;2023-07-28T08:38:19;16.00;91.10
32506;DHT22;18955;51.224;8.482;2023-07-28T08:40:45;16.00;90.80
32506;DHT22;18955;51.224;8.482;2023-07-28T08:43:11;16.00;91.40
32506;DHT22;18955;51.224;8.482;2023-07-28T08:45:38;16.00;91.20
32506;DHT22;18955;51.224;8.482;2023-07-28T08:48:04;16.00;91.20
32506;DHT22;18955;51.224;8.482;2023-07-28T08:50:30;15.90;91.20
32506;DHT22;18955;51.224;8.482;2023-07-28T08:52:57;16.00;90.90
32506;DHT22;18955;51.224;8.482;2023-07-28T08:55:23;16.00;90.90
32506;DHT22;18955;51.224;8.482;2023-07-28T08:57:49;16.00;91.70
32506;DHT22;18955;51.224;8.482;2023-07-28T09:00:16;16.10;91.40
32506;DHT22;18955;51.224;8.482;2023-07-28T09:02:43;16.00;91.30
32506;DHT22;18955;51.224;8.482;2023-07-28T09:05:20;16.10;91.20
32506;DHT22;18955;51.224;8.482;2023-07-28T09:07:47;16.10;91.10
32506;DHT22;18955;51.224;8.482;2023-07-28T09:10:13;16.10;91.10
32506;DHT22;18955;51.224;8.482;2023-07-28T09:12:48;16.10;91.10
32506;DHT22;18955;51.224;8.482;2023-07-28T09:15:15;16.10;91.00
32506;DHT22;18955;51.224;8.482;2023-07-28T09:17:43;16.10;90.80
32506;DHT22;18955;51.224;8.482;2023-07-28T09:20:14;16.10;90.70
32506;DHT22;18955;51.224;8.482;2023-07-28T09:22:42;16.20;90.60
32506;DHT22;18955;51.224;8.482;2023-07-28T09:25:16;16.20;90.70
32506;DHT22;18955;51.224;8.482;2023-07-28T09:27:52;16.20;90.80
32506;DHT22;18955;51.224;8.482;2023-07-28T09:30:19;16.20;90.70
32506;DHT22;18955;51.224;8.482;2023-07-28T09:32:50;16.20;90.80
32506;DHT22;18955;51.224;8.482;2023-07-28T09:35:17;16.20;90.90
32506;DHT22;18955;51.224;8.482;2023-07-28T09:37:45;16.20;90.60
32506;DHT22;18955;51.224;8.482;2023-07-28T09:40:16;16.30;90.80
32506;DHT22;18955;51.224;8.482;2023-07-28T09:42:44;16.30;91.00
32506;DHT22;18955;51.224;8.482;2023-07-28T09:45:11;16.30;90.90
32506;DHT22;18955;51.224;8.482;2023-07-28T09:47:38;16.30;90.80
32506;DHT22;18955;51.224;8.482;2023-07-28T09:50:05;16.30;90.70
32506;DHT22;18955;51.224;8.482;2023-07-28T09:52:37;16.30;90.90
32506;DHT22;18955;51.224;8.482;2023-07-28T09:55:08;16.30;90.80
32506;DHT22;18955;51.224;8.482;2023-07-28T09:57:41;16.30;90.60
32506;DHT22;18955;51.224;8.482;2023-07-28T10:00:09;16.40;90.50
32506;DHT22;18955;51.224;8.482;2023-07-28T10:02:39;16.40;90.50
32506;DHT22;18955;51.224;8.482;2023-07-28T10:05:06;16.40;90.60
32506;DHT22;18955;51.224;8.482;2023-07-28T10:07:38;16.40;90.60
32506;DHT22;18955;51.224;8.482;2023-07-28T10:10:07;16.40;91.20
32506;DHT22;18955;51.224;8.482;2023-07-28T10:12:47;16.40;91.40
32506;DHT22;18955;51.224;8.482;2023-07-28T10:15:18;16.40;91.30
32506;DHT22;18955;51.224;8.482;2023-07-28T10:17:50;16.50;91.50
32506;DHT22;18955;51.224;8.482;2023-07-28T10:20:35;16.50;91.70
32506;DHT22;18955;51.224;8.482;2023-07-28T10:25:34;16.50;91.40
32506;DHT22;18955;51.224;8.482;2023-07-28T10:28:01;16.50;91.50
32506;DHT22;18955;51.224;8.482;2023-07-28T10:30:28;16.50;91.30
32506;DHT22;18955;51.224;8.482;2023-07-28T10:32:55;16.50;91.10
32506;DHT22;18955;51.224;8.482;2023-07-28T10:35:28;16.50;91.20
32506;DHT22;18955;51.224;8.482;2023-07-28T10:37:57;16.50;91.00
32506;DHT22;18955;51.224;8.482;2023-07-28T10:40:31;16.50;90.80
32506;DHT22;18955;51.224;8.482;2023-07-28T10:43:00;16.50;90.80
32506;DHT22;18955;51.224;8.482;2023-07-28T10:45:27;16.60;90.70
32506;DHT22;18955;51.224;8.482;2023-07-28T10:47:55;16.60;90.80
32506;DHT22;18955;51.224;8.482;2023-07-28T10:50:30;16.60;90.90
32506;DHT22;18955;51.224;8.482;2023-07-28T10:52:57;16.60;90.90
32506;DHT22;18955;51.224;8.482;2023-07-28T10:55:24;16.60;90.90
32506;DHT22;18955;51.224;8.482;2023-07-28T10:57:52;16.60;90.90
32506;DHT22;18955;51.224;8.482;2023-07-28T11:00:20;16.60;90.60
32506;DHT22;18955;51.224;8.482;2023-07-28T11:02:52;16.70;90.60
32506;DHT22;18955;51.224;8.482;2023-07-28T11:05:27;16.70;90.50
32506;DHT22;18955;51.224;8.482;2023-07-28T11:07:56;16.70;90.50
32506;DHT22;18955;51.224;8.482;2023-07-28T11:10:22;16.70;90.60
32506;DHT22;18955;51.224;8.482;2023-07-28T11:12:51;16.70;90.50
32506;DHT22;18955;51.224;8.482;2023-07-28T11:15:19;16.70;90.60
32506;DHT22;18955;51.224;8.482;2023-07-28T11:17:50;16.70;90.40
32506;DHT22;18955;51.224;8.482;2023-07-28T11:20:17;16.70;90.40
32506;DHT22;18955;51.224;8.482;2023-07-28T11:22:45;16.70;90.40
32506;DHT22;18955;51.224;8.482;2023-07-28T11:25:11;16.80;90.40
32506;DHT22;18955;51.224;8.482;2023-07-28T11:27:39;16.80;90.40
32506;DHT22;18955;51.224;8.482;2023-07-28T11:30:09;16.80;90.50
32506;DHT22;18955;51.224;8.482;2023-07-28T11:32:36;16.80;90.60
32506;DHT22;18955;51.224;8.482;2023-07-28T11:35:08;16.90;90.70
32506;DHT22;18955;51.224;8.482;2023-07-28T11:37:53;16.80;90.50
32506;DHT22;18955;51.224;8.482;2023-07-28T11:40:21;16.90;90.40
32506;DHT22;18955;51.224;8.482;2023-07-28T11:42:50;16.90;90.50
32506;DHT22;18955;51.224;8.482;2023-07-28T11:45:19;16.90;90.80
32506;DHT22;18955;51.224;8.482;2023-07-28T11:48:04;16.90;90.60
32506;DHT22;18955;51.224;8.482;2023-07-28T11:50:39;17.00;90.50
32506;DHT22;18955;51.224;8.482;2023-07-28T11:53:06;16.90;90.50
32506;DHT22;18955;51.224;8.482;2023-07-28T11:55:34;17.00;90.50
32506;DHT22;18955;51.224;8.482;2023-07-28T11:58:01;17.00;90.60
32506;DHT22;18955;51.224;8.482;2023-07-28T12:00:34;17.00;90.60
32506;DHT22;18955;51.224;8.482;2023-07-28T12:03:10;17.00;90.50
32506;DHT22;18955;51.224;8.482;2023-07-28T12:05:39;17.00;90.50
32506;DHT22;18955;51.224;8.482;2023-07-28T12:08:06;17.00;90.40
32506;DHT22;18955;51.224;8.482;2023-07-28T12:10:35;17.00;90.60
32506;DHT22;18955;51.224;8.482;2023-07-28T12:13:06;17.00;90.50
32506;DHT22;18955;51.224;8.482;2023-07-28T12:15:33;17.10;90.60
32506;DHT22;18955;51.224;8.482;2023-07-28T12:18:04;17.10;90.50
32506;DHT22;18955;51.224;8.482;2023-07-28T12:20:51;17.10;90.60
32506;DHT22;18955;51.224;8.482;2023-07-28T12:23:19;17.10;90.40
32506;DHT22;18955;51.224;8.482;2023-07-28T12:25:47;17.10;90.30
32506;DHT22;18955;51.224;8.482;2023-07-28T12:28:13;17.10;90.40
32506;DHT22;18955;51.224;8.482;2023-07-28T12:30:39;17.10;90.30
32506;DHT22;18955;51.224;8.482;2023-07-28T12:33:06;17.20;90.20
32506;DHT22;18955;51.224;8.482;2023-07-28T12:35:34;17.20;90.50
32506;DHT22;18955;51.224;8.482;2023-07-28T12:38:02;17.20;90.40
32506;DHT22;18955;51.224;8.482;2023-07-28T12:40:32;17.20;90.40
32506;DHT22;18955;51.224;8.482;2023-07-28T12:43:02;17.20;90.70
32506;DHT22;18955;51.224;8.482;2023-07-28T12:45:28;17.20;90.30
32506;DHT22;18955;51.224;8.482;2023-07-28T12:47:55;17.20;90.30
32506;DHT22;18955;51.224;8.482;2023-07-28T12:50:22;17.30;90.40
32506;DHT22;18955;51.224;8.482;2023-07-28T12:52:49;17.30;90.40
32506;DHT22;18955;51.224;8.482;2023-07-28T12:55:17;17.30;90.60
32506;DHT22;18955;51.224;8.482;2023-07-28T12:57:44;17.30;90.30
32506;DHT22;18955;51.224;8.482;2023-07-28T13:00:11;17.30;90.50
32506;DHT22;18955;51.224;8.482;2023-07-28T13:02:43;17.30;90.50
32506;DHT22;18955;51.224;8.482;2023-07-28T13:05:10;17.30;90.40
32506;DHT22;18955;51.224;8.482;2023-07-28T13:07:37;17.40;90.60
32506;DHT22;18955;51.224;8.482;2023-07-28T13:10:05;17.40;90.80
32506;DHT22;18955;51.224;8.482;2023-07-28T13:12:32;17.40;90.90
32506;DHT22;18955;51.224;8.482;2023-07-28T13:14:58;17.40;90.50
32506;DHT22;18955;51.224;8.482;2023-07-28T13:17:24;17.40;90.60
32506;DHT22;18955;51.224;8.482;2023-07-28T13:19:50;17.40;90.80
32506;DHT22;18955;51.224;8.482;2023-07-28T13:22:17;17.40;90.70
32506;DHT22;18955;51.224;8.482;2023-07-28T13:24:43;17.50;90.40
32506;DHT22;18955;51.224;8.482;2023-07-28T13:27:09;17.50;90.40
32506;DHT22;18955;51.224;8.482;2023-07-28T13:29:36;17.50;90.30
32506;DHT22;18955;51.224;8.482;2023-07-28T13:32:02;17.50;90.20
32506;DHT22;18955;51.224;8.482;2023-07-28T13:34:28;17.50;90.40
32506;DHT22;18955;51.224;8.482;2023-07-28T13:36:55;17.50;90.60
32506;DHT22;18955;51.224;8.482;2023-07-28T13:39:22;17.50;90.50
32506;DHT22;18955;51.224;8.482;2023-07-28T13:41:48;17.60;90.50
32506;DHT22;18955;51.224;8.482;2023-07-28T13:44:15;17.50;90.50
32506;DHT22;18955;51.224;8.482;2023-07-28T13:46:41;17.50;90.80
32506;DHT22;18955;51.224;8.482;2023-07-28T13:49:08;17.60;90.70
32506;DHT22;18955;51.224;8.482;2023-07-28T13:51:34;17.60;90.40
32506;DHT22;18955;51.224;8.482;2023-07-28T13:54:00;17.60;90.40
32506;DHT22;18955;51.224;8.482;2023-07-28T13:56:26;17.60;90.50
32506;DHT22;18955;51.224;8.482;2023-07-28T13:58:54;17.60;90.40
32506;DHT22;18955;51.224;8.482;2023-07-28T14:01:20;17.60;90.40
32506;DHT22;18955;51.224;8.482;2023-07-28T14:03:47;17.60;90.40
32506;DHT22;18955;51.224;8.482;2023-07-28T14:06:13;17.70;90.50
32506;DHT22;18955;51.224;8.482;2023-07-28T14:08:40;17.70;90.40
32506;DHT22;18955;51.224;8.482;2023-07-28T14:11:06;17.70;90.60
32506;DHT22;18955;51.224;8.482;2023-07-28T14:13:32;17.70;90.40
32506;DHT22;18955;51.224;8.482;2023-07-28T14:15:59;17.70;90.40
32506;DHT22;18955;51.224;8.482;2023-07-28T14:18:25;17.70;90.50
32506;DHT22;18955;51.224;8.482;2023-07-28T14:20:51;17.70;90.50
32506;DHT22;18955;51.224;8.482;2023-07-28T14:23:25;17.70;90.50
32506;DHT22;18955;51.224;8.482;2023-07-28T14:25:51;17.70;90.30
32506;DHT22;18955;51.224;8.482;2023-07-28T14:28:18;17.80;90.50
32506;DHT22;18955;51.224;8.482;2023-07-28T14:30:45;17.80;90.90
32506;DHT22;18955;51.224;8.482;2023-07-28T14:33:13;17.80;90.80
32506;DHT22;18955;51.224;8.482;2023-07-28T14:35:40;17.80;90.50
32506;DHT22;18955;51.224;8.482;2023-07-28T14:38:07;17.80;90.50
32506;DHT22;18955;51.224;8.482;2023-07-28T14:40:33;17.90;90.50
32506;DHT22;18955;51.224;8.482;2023-07-28T14:42:59;17.90;90.30
32506;DHT22;18955;51.224;8.482;2023-07-28T14:45:25;17.90;90.40
32506;DHT22;18955;51.224;8.482;2023-07-28T14:47:51;17.90;90.30
32506;DHT22;18955;51.224;8.482;2023-07-28T14:50:17;18.00;90.20
32506;DHT22;18955;51.224;8.482;2023-07-28T14:52:44;18.00;90.20
32506;DHT22;18955;51.224;8.482;2023-07-28T14:55:10;18.00;90.20
32506;DHT22;18955;51.224;8.482;2023-07-28T14:57:36;18.00;90.10
32506;DHT22;18955;51.224;8.482;2023-07-28T15:00:02;18.00;90.20
32506;DHT22;18955;51.224;8.482;2023-07-28T15:02:29;18.00;90.00
32506;DHT22;18955;51.224;8.482;2023-07-28T15:04:55;18.00;90.00
32506;DHT22;18955;51.224;8.482;2023-07-28T15:07:21;18.00;90.10
32506;DHT22;18955;51.224;8.482;2023-07-28T15:09:48;18.00;89.80
32506;DHT22;18955;51.224;8.482;2023-07-28T15:12:14;18.10;89.70
32506;DHT22;18955;51.224;8.482;2023-07-28T15:14:41;18.10;89.60
32506;DHT22;18955;51.224;8.482;2023-07-28T15:17:07;18.10;89.70
32506;DHT22;18955;51.224;8.482;2023-07-28T15:19:34;18.10;89.90
32506;DHT22;18955;51.224;8.482;2023-07-28T15:22:00;18.10;89.60
32506;DHT22;18955;51.224;8.482;2023-07-28T15:24:26;18.10;89.80
32506;DHT22;18955;51.224;8.482;2023-07-28T15:26:52;18.20;90.00
32506;DHT22;18955;51.224;8.482;2023-07-28T15:29:19;18.20;89.80
32506;DHT22;18955;51.224;8.482;2023-07-28T15:31:45;18.20;89.60
32506;DHT22;18955;51.224;8.482;2023-07-28T15:34:11;18.20;89.50
32506;DHT22;18955;51.224;8.482;2023-07-28T15:36:38;18.20;89.50
32506;DHT22;18955;51.224;8.482;2023-07-28T15:39:04;18.20;89.50
32506;DHT22;18955;51.224;8.482;2023-07-28T15:41:30;18.20;89.50